createdAt,value
2022-09-21T00:04:18.463Z,28.10
2022-09-21T00:10:30.298Z,28.10
2022-09-21T00:16:45.170Z,28.00
2022-09-21T00:22:54.782Z,27.70
2022-09-21T00:29:07.150Z,27.40
2022-09-21T00:35:20.212Z,27.20
2022-09-21T00:41:34.026Z,27.30
2022-09-21T00:47:47.196Z,27.50
2022-09-21T00:54:00.722Z,27.50
2022-09-21T01:00:16.228Z,27.50
2022-09-21T01:06:25.653Z,27.50
2022-09-21T01:12:43.254Z,27.60
2022-09-21T01:18:56.896Z,27.60
2022-09-21T01:25:12.887Z,27.60
2022-09-21T01:31:25.585Z,27.50
2022-09-21T01:37:37.983Z,27.50
2022-09-21T01:43:50.222Z,27.50
2022-09-21T01:50:00.277Z,27.50
2022-09-21T01:56:10.231Z,27.50
2022-09-21T02:02:25.863Z,27.50
2022-09-21T02:08:37.453Z,27.50
2022-09-21T02:14:50.894Z,27.50
2022-09-21T02:21:07.137Z,27.50
2022-09-21T02:27:24.003Z,27.50
2022-09-21T02:33:38.087Z,27.40
2022-09-21T02:39:52.496Z,27.40
2022-09-21T02:46:04.957Z,27.50
2022-09-21T02:52:18.746Z,27.40
2022-09-21T02:58:31.838Z,27.40
2022-09-21T03:04:43.613Z,27.40
2022-09-21T03:10:53.720Z,27.30
2022-09-21T03:17:06.755Z,27.30
2022-09-21T03:23:18.716Z,27.30
2022-09-21T03:29:31.253Z,27.30
2022-09-21T03:35:43.584Z,27.30
2022-09-21T03:41:55.975Z,27.30
2022-09-21T03:48:09.081Z,27.30
2022-09-21T03:54:21.975Z,27.30
2022-09-21T04:00:33.152Z,27.30
2022-09-21T04:06:46.236Z,27.20
2022-09-21T04:13:00.577Z,27.20
2022-09-21T04:19:16.235Z,27.10
2022-09-21T04:25:28.002Z,27.20
2022-09-21T04:31:38.951Z,27.20
2022-09-21T04:37:51.720Z,27.10
2022-09-21T04:44:02.580Z,27.10
2022-09-21T04:50:14.117Z,27.10
2022-09-21T04:56:25.520Z,27.00
2022-09-21T05:02:37.310Z,27.00
2022-09-21T05:09:05.048Z,27.00
2022-09-21T05:15:21.181Z,27.00
2022-09-21T05:21:27.678Z,27.00
2022-09-21T05:27:37.846Z,26.90
2022-09-21T05:33:49.897Z,26.90
2022-09-21T05:40:05.340Z,26.90
2022-09-21T05:46:20.602Z,26.80
2022-09-21T05:52:32.983Z,26.80
2022-09-21T05:58:48.063Z,26.80
2022-09-21T06:05:00.749Z,26.80
2022-09-21T06:11:13.436Z,26.80
2022-09-21T06:17:22.811Z,26.80
2022-09-21T06:23:35.474Z,26.80
2022-09-21T06:29:50.001Z,26.70
2022-09-21T06:36:02.932Z,26.70
2022-09-21T06:42:14.073Z,26.70
2022-09-21T06:48:25.240Z,26.70
2022-09-21T06:54:37.852Z,26.60
2022-09-21T07:00:50.301Z,26.60
2022-09-21T07:07:04.913Z,26.60
2022-09-21T07:13:12.326Z,26.60
2022-09-21T07:19:26.671Z,26.60
2022-09-21T07:25:35.105Z,26.60
2022-09-21T07:31:47.699Z,26.60
2022-09-21T07:38:01.757Z,26.50
2022-09-21T07:44:13.017Z,26.50
2022-09-21T07:50:26.052Z,26.40
2022-09-21T07:56:38.504Z,26.40
2022-09-21T08:02:50.259Z,26.40
2022-09-21T08:08:59.192Z,26.40
2022-09-21T08:15:37.046Z,26.40
2022-09-21T08:21:32.309Z,26.40
2022-09-21T08:27:44.848Z,26.30
2022-09-21T08:33:58.732Z,26.30
2022-09-21T08:40:09.054Z,26.30
2022-09-21T08:46:23.873Z,26.30
2022-09-21T08:52:37.287Z,26.20
2022-09-21T08:58:50.550Z,26.20
2022-09-21T09:05:03.740Z,26.20
2022-09-21T09:11:22.587Z,26.20
2022-09-21T09:17:39.317Z,26.20
2022-09-21T09:23:52.058Z,26.20
2022-09-21T09:30:05.978Z,26.20
2022-09-21T09:36:30.102Z,26.10
2022-09-21T09:42:54.053Z,26.10
2022-09-21T09:49:20.274Z,26.10
2022-09-21T09:55:33.591Z,26.00
2022-09-21T10:01:43.906Z,26.00
2022-09-21T10:07:56.988Z,26.10
2022-09-21T10:14:12.052Z,26.10
2022-09-21T10:20:25.262Z,26.10
2022-09-21T10:26:41.670Z,26.00
2022-09-21T10:32:59.198Z,26.00
2022-09-21T10:45:59.796Z,26.00
2022-09-21T10:52:12.742Z,26.00
2022-09-21T10:58:21.375Z,26.00
2022-09-21T11:04:51.783Z,25.90
2022-09-21T11:11:07.900Z,26.00
2022-09-21T11:17:21.288Z,26.00
2022-09-21T11:23:42.482Z,25.90
2022-09-21T11:30:00.070Z,26.00
2022-09-21T11:36:14.750Z,26.00
2022-09-21T11:42:32.380Z,25.90
2022-09-21T11:49:07.816Z,25.90
2022-09-21T11:55:38.986Z,25.80
2022-09-21T12:02:13.441Z,25.90
2022-09-21T12:09:05.432Z,25.90
2022-09-21T12:15:20.308Z,25.90
2022-09-21T12:21:34.445Z,25.80
2022-09-21T12:27:47.231Z,25.80
2022-09-21T12:33:57.197Z,25.80
2022-09-21T12:40:12.538Z,25.90
2022-09-21T12:46:27.223Z,25.90
2022-09-21T12:52:38.879Z,25.80
2022-09-21T12:59:03.480Z,25.80
2022-09-21T13:05:18.974Z,25.80
2022-09-21T13:11:32.145Z,25.90
2022-09-21T13:17:43.439Z,26.00
2022-09-21T13:24:01.596Z,26.00
2022-09-21T13:30:39.708Z,26.20
2022-09-21T13:36:50.840Z,26.20
2022-09-21T13:43:04.079Z,26.30
2022-09-21T13:49:24.166Z,26.50
2022-09-21T13:55:40.685Z,26.70
2022-09-21T14:01:54.810Z,26.90
2022-09-21T14:08:06.702Z,27.10
2022-09-21T14:14:25.149Z,27.20
2022-09-21T14:20:39.532Z,27.40
2022-09-21T14:27:03.426Z,27.50
2022-09-21T14:33:33.820Z,27.60
2022-09-21T14:39:45.438Z,27.80
2022-09-21T14:46:14.606Z,27.80
2022-09-21T14:52:32.572Z,27.80
2022-09-21T14:58:49.899Z,27.80
2022-09-21T15:05:23.272Z,27.90
2022-09-21T15:11:38.821Z,28.00
2022-09-21T15:18:04.224Z,28.10
2022-09-21T15:24:27.442Z,28.20
2022-09-21T15:30:39.810Z,28.20
2022-09-21T15:36:54.824Z,28.20
2022-09-21T15:43:07.164Z,28.20
2022-09-21T15:49:23.908Z,28.00
2022-09-21T15:55:35.347Z,27.90
2022-09-21T16:01:50.784Z,27.90
2022-09-21T16:08:17.898Z,28.00
2022-09-21T16:14:47.528Z,28.00
2022-09-21T16:21:00.288Z,28.00
2022-09-21T16:27:18.372Z,27.90
2022-09-21T16:33:46.331Z,27.80
2022-09-21T16:39:58.889Z,27.70
2022-09-21T16:46:09.824Z,27.70
2022-09-21T16:52:24.102Z,27.60
2022-09-21T16:58:38.090Z,27.70
2022-09-21T17:04:48.653Z,27.70
2022-09-21T17:11:03.863Z,27.70
2022-09-21T17:17:20.401Z,27.70
2022-09-21T17:23:31.587Z,27.70
2022-09-21T17:29:45.594Z,27.80
2022-09-21T17:35:55.988Z,27.80
2022-09-21T17:42:14.093Z,27.70
2022-09-21T17:48:30.643Z,27.70
2022-09-21T17:54:42.049Z,27.70
2022-09-21T18:00:59.409Z,27.70
2022-09-21T18:07:16.994Z,27.70
2022-09-21T18:13:37.501Z,27.70
2022-09-21T18:19:53.471Z,27.70
2022-09-21T18:26:03.291Z,27.70
2022-09-21T18:32:20.923Z,27.70
2022-09-21T18:38:36.969Z,27.70
2022-09-21T18:44:45.992Z,27.80
2022-09-21T18:51:03.442Z,27.80
2022-09-21T18:57:18.957Z,27.90
2022-09-21T19:03:35.116Z,28.00
2022-09-21T19:09:54.938Z,27.90
2022-09-21T19:16:10.735Z,27.70
2022-09-21T19:22:23.087Z,27.60
2022-09-21T19:28:41.648Z,27.60
2022-09-21T19:34:55.892Z,27.70
2022-09-21T19:41:11.526Z,27.80
2022-09-21T19:47:25.966Z,27.90
2022-09-21T19:53:53.197Z,27.90
2022-09-21T20:00:07.317Z,28.00
2022-09-21T20:06:25.136Z,28.00
2022-09-21T20:12:37.912Z,27.80
2022-09-21T20:18:54.940Z,27.60
2022-09-21T20:25:08.325Z,27.50
2022-09-21T20:31:24.457Z,27.50
2022-09-21T20:37:33.517Z,27.70
2022-09-21T20:43:45.488Z,27.80
2022-09-21T20:49:55.609Z,27.80
2022-09-21T20:56:10.737Z,27.90
2022-09-21T21:02:24.348Z,27.70
2022-09-21T21:08:38.702Z,27.50
2022-09-21T21:14:54.775Z,27.40
2022-09-21T21:21:04.393Z,27.30
2022-09-21T21:27:18.546Z,27.50
2022-09-21T21:33:32.478Z,27.60
2022-09-21T21:39:47.488Z,27.70
2022-09-21T21:46:03.917Z,27.80
2022-09-21T21:52:17.931Z,27.80
2022-09-21T21:58:29.520Z,27.90
2022-09-21T22:04:41.140Z,27.90
2022-09-21T22:11:00.890Z,27.90
2022-09-21T22:17:15.930Z,27.90
2022-09-21T22:23:29.865Z,27.90
2022-09-21T22:29:43.174Z,27.80
2022-09-21T22:35:53.221Z,27.90
2022-09-21T22:42:06.939Z,28.00
2022-09-21T22:48:19.661Z,28.00
2022-09-21T22:54:32.010Z,27.90
2022-09-21T23:00:46.884Z,28.00
2022-09-21T23:06:59.834Z,28.10
2022-09-21T23:13:13.035Z,28.10
2022-09-21T23:19:29.435Z,28.00
2022-09-21T23:25:42.480Z,27.90
2022-09-21T23:31:55.635Z,27.90
2022-09-21T23:38:09.231Z,28.00
2022-09-21T23:44:22.013Z,28.00
2022-09-21T23:50:31.239Z,27.90
2022-09-21T23:56:42.070Z,28.00
